Time;durP1;ratioP1;P1;durP2;ratioP2;P2;SDS_P1;SDS_P2;PMS_P1;PMS_P2;Temp;Humidity;BMP_temperature;BMP_pressure;BME280_temperature;BME280_humidity;BME280_pressure;Samples;Min_cycle;Max_cycle;Signal;HPM_P1;HPM_P2
2022/05/23 00:00:12;;;;;;;;;;;15.70;99.90;;;;;;5147956;27;19922;-78
2022/05/23 00:02:37;;;;;;;;;;;15.80;99.90;;;;;;5110872;28;19912;-80
2022/05/23 00:05:03;;;;;;;;;;;15.80;99.90;;;;;;5101344;28;19919;-78
2022/05/23 00:07:30;;;;;;;;;;;15.80;99.90;;;;;;5111552;28;19915;-79
2022/05/23 00:09:56;;;;;;;;;;;15.70;99.90;;;;;;5110947;28;19915;-78
2022/05/23 00:12:22;;;;;;;;;;;15.70;99.90;;;;;;5100106;28;19912;-79
2022/05/23 00:14:49;;;;;;;;;;;15.70;99.90;;;;;;5110313;28;19920;-78
2022/05/23 00:17:14;;;;;;;;;;;15.60;99.90;;;;;;5105798;28;19913;-78
2022/05/23 00:19:40;;;;;;;;;;;15.60;99.90;;;;;;5100331;28;19912;-78
2022/05/23 00:22:06;;;;;;;;;;;15.50;99.90;;;;;;5100177;28;20071;-78
2022/05/23 00:24:32;;;;;;;;;;;15.50;99.90;;;;;;5109464;28;19986;-78
2022/05/23 00:26:57;;;;;;;;;;;15.50;99.90;;;;;;5113958;27;19916;-80
2022/05/23 00:29:23;;;;;;;;;;;15.50;99.90;;;;;;5106139;28;20210;-78
2022/05/23 00:37:18;;;;;;;;;;;15.50;99.90;;;;;;5102178;28;19922;-78
2022/05/23 00:39:44;;;;;;;;;;;15.50;99.90;;;;;;5109081;28;19916;-77
2022/05/23 00:44:57;;;;;;;;;;;15.50;99.90;;;;;;5110252;28;19927;-79
2022/05/23 00:47:24;;;;;;;;;;;15.40;99.90;;;;;;5109248;28;19920;-78
2022/05/23 00:49:50;;;;;;;;;;;15.40;99.90;;;;;;5109599;28;20255;-78
2022/05/23 00:52:35;;;;;;;;;;;15.30;99.90;;;;;;5106022;28;20010;-79
2022/05/23 00:55:15;;;;;;;;;;;15.30;99.90;;;;;;5098803;28;19916;-79
2022/05/23 00:57:42;;;;;;;;;;;15.20;99.90;;;;;;5101210;28;19936;-75
2022/05/23 01:00:09;;;;;;;;;;;15.10;99.90;;;;;;5102692;28;20307;-76
2022/05/23 01:02:36;;;;;;;;;;;15.10;99.90;;;;;;5104833;28;19926;-75
2022/05/23 01:05:03;;;;;;;;;;;15.00;99.90;;;;;;5099727;28;19966;-75
2022/05/23 01:07:28;;;;;;;;;;;15.00;99.90;;;;;;5102545;28;19952;-76
2022/05/23 01:09:54;;;;;;;;;;;14.90;99.90;;;;;;5104489;28;19962;-76
2022/05/23 01:12:21;;;;;;;;;;;14.90;99.90;;;;;;5097461;28;19912;-76
2022/05/23 01:14:55;;;;;;;;;;;14.90;99.90;;;;;;5099858;28;19964;-77
2022/05/23 01:17:22;;;;;;;;;;;14.90;99.90;;;;;;5101775;28;20053;-76
2022/05/23 01:19:48;;;;;;;;;;;14.80;99.90;;;;;;5099831;28;19919;-76
2022/05/23 01:22:32;;;;;;;;;;;14.90;99.90;;;;;;5098376;28;20006;-75
2022/05/23 01:25:05;;;;;;;;;;;14.80;99.90;;;;;;5099331;28;19912;-76
2022/05/23 01:27:32;;;;;;;;;;;14.80;99.90;;;;;;5104455;28;19922;-75
2022/05/23 01:29:57;;;;;;;;;;;14.70;99.90;;;;;;5105829;28;19920;-75
2022/05/23 01:32:23;;;;;;;;;;;14.70;99.90;;;;;;5099947;28;19911;-76
2022/05/23 01:34:49;;;;;;;;;;;14.70;99.90;;;;;;5109359;28;20234;-76
2022/05/23 01:37:15;;;;;;;;;;;14.70;99.90;;;;;;5105669;28;19919;-75
2022/05/23 01:39:40;;;;;;;;;;;14.70;99.90;;;;;;5106229;28;19920;-75
2022/05/23 01:42:06;;;;;;;;;;;14.80;99.90;;;;;;5107398;28;19908;-75
2022/05/23 01:44:33;;;;;;;;;;;14.90;99.90;;;;;;5112483;28;19908;-75
2022/05/23 01:46:59;;;;;;;;;;;14.80;99.90;;;;;;5134746;27;19923;-76
2022/05/23 01:49:24;;;;;;;;;;;14.70;99.90;;;;;;5100377;28;19912;-75
2022/05/23 01:51:50;;;;;;;;;;;14.70;99.90;;;;;;5107297;28;19932;-77
2022/05/23 01:54:15;;;;;;;;;;;14.60;99.90;;;;;;5103230;28;19919;-76
2022/05/23 01:56:41;;;;;;;;;;;14.60;99.90;;;;;;5102596;28;19942;-76
2022/05/23 02:01:50;;;;;;;;;;;14.60;99.90;;;;;;5103138;28;19958;-75
2022/05/23 02:04:16;;;;;;;;;;;14.60;99.90;;;;;;5102862;28;19916;-78
2022/05/23 02:06:42;;;;;;;;;;;14.50;99.90;;;;;;5104663;28;19916;-77
2022/05/23 02:09:07;;;;;;;;;;;14.50;99.90;;;;;;5103350;28;19912;-75
2022/05/23 02:11:33;;;;;;;;;;;14.40;99.90;;;;;;5107617;28;20249;-76
2022/05/23 02:13:58;;;;;;;;;;;14.40;99.90;;;;;;5109908;28;20227;-76
2022/05/23 02:16:25;;;;;;;;;;;14.30;99.90;;;;;;5102651;28;20006;-76
2022/05/23 02:18:50;;;;;;;;;;;14.30;99.90;;;;;;5104437;28;19951;-75
2022/05/23 02:21:16;;;;;;;;;;;14.30;99.90;;;;;;5110795;28;19958;-74
2022/05/23 02:23:42;;;;;;;;;;;14.40;99.90;;;;;;5113942;28;19912;-75
2022/05/23 02:26:08;;;;;;;;;;;14.40;99.90;;;;;;5104616;28;19938;-75
2022/05/23 02:28:33;;;;;;;;;;;14.50;99.90;;;;;;5112371;28;19908;-76
2022/05/23 02:30:59;;;;;;;;;;;14.50;99.90;;;;;;5108928;28;19919;-76
2022/05/23 02:33:24;;;;;;;;;;;14.40;99.90;;;;;;5107833;28;19919;-74
2022/05/23 02:35:50;;;;;;;;;;;14.40;99.90;;;;;;5102314;28;19916;-75
2022/05/23 02:38:16;;;;;;;;;;;14.40;99.90;;;;;;5145264;27;19920;-75
2022/05/23 02:40:41;;;;;;;;;;;14.40;99.90;;;;;;5102207;28;19920;-75
2022/05/23 02:43:07;;;;;;;;;;;14.30;99.90;;;;;;5107577;28;20298;-75
2022/05/23 02:45:32;;;;;;;;;;;14.40;99.90;;;;;;5112022;28;19912;-76
2022/05/23 02:47:58;;;;;;;;;;;14.30;99.90;;;;;;5102489;28;20356;-76
2022/05/23 02:50:24;;;;;;;;;;;14.20;99.90;;;;;;5105585;28;19912;-75
2022/05/23 02:52:49;;;;;;;;;;;14.10;99.90;;;;;;5101963;28;20067;-76
2022/05/23 02:55:15;;;;;;;;;;;14.10;99.90;;;;;;5118952;27;20322;-76
2022/05/23 02:57:41;;;;;;;;;;;14.10;99.90;;;;;;5113181;27;19920;-76
2022/05/23 03:00:08;;;;;;;;;;;14.10;99.90;;;;;;5106935;28;19915;-76
2022/05/23 03:05:18;;;;;;;;;;;14.10;99.90;;;;;;5110765;28;20008;-78
2022/05/23 03:07:43;;;;;;;;;;;14.10;99.90;;;;;;5105130;28;20319;-75
2022/05/23 03:10:09;;;;;;;;;;;14.00;99.90;;;;;;5101639;28;20223;-76
2022/05/23 03:12:35;;;;;;;;;;;14.00;99.90;;;;;;5102347;28;20315;-76
2022/05/23 03:15:01;;;;;;;;;;;13.90;99.90;;;;;;5108631;28;19916;-75
2022/05/23 03:17:27;;;;;;;;;;;13.90;99.90;;;;;;5103434;28;20883;-76
2022/05/23 03:19:53;;;;;;;;;;;13.90;99.90;;;;;;5103257;28;20016;-77
2022/05/23 03:27:47;;;;;;;;;;;13.80;99.90;;;;;;5101644;28;19982;-77
2022/05/23 03:30:13;;;;;;;;;;;13.80;99.90;;;;;;5140282;27;20219;-76
2022/05/23 03:32:39;;;;;;;;;;;13.80;99.90;;;;;;5100140;28;19920;-76
2022/05/23 03:35:07;;;;;;;;;;;13.90;99.90;;;;;;5103073;28;19923;-77
2022/05/23 03:37:32;;;;;;;;;;;13.80;99.90;;;;;;5101059;28;19916;-75
2022/05/23 03:39:58;;;;;;;;;;;13.80;99.90;;;;;;5111596;28;20207;-76
2022/05/23 03:42:23;;;;;;;;;;;13.80;99.90;;;;;;5106785;28;19968;-77
2022/05/23 03:44:49;;;;;;;;;;;13.80;99.90;;;;;;5100412;28;19912;-76
2022/05/23 03:47:15;;;;;;;;;;;13.80;99.90;;;;;;5113806;28;19908;-75
2022/05/23 03:49:41;;;;;;;;;;;13.80;99.90;;;;;;5105910;28;20196;-75
2022/05/23 03:52:06;;;;;;;;;;;13.80;99.90;;;;;;5105840;28;19938;-75
2022/05/23 03:54:32;;;;;;;;;;;13.80;99.90;;;;;;5111651;28;19966;-76
2022/05/23 03:57:02;;;;;;;;;;;13.80;99.90;;;;;;5104338;28;19916;-75
2022/05/23 03:59:28;;;;;;;;;;;13.90;99.90;;;;;;5100636;28;20242;-75
2022/05/23 04:01:56;;;;;;;;;;;13.90;99.90;;;;;;5107837;28;19911;-78
2022/05/23 04:04:31;;;;;;;;;;;14.00;99.90;;;;;;5114475;28;19916;-76
2022/05/23 04:07:01;;;;;;;;;;;14.00;99.90;;;;;;5109515;28;20256;-76
2022/05/23 04:09:27;;;;;;;;;;;14.00;99.90;;;;;;5107240;28;19913;-76
2022/05/23 04:11:53;;;;;;;;;;;14.10;99.90;;;;;;5097264;28;19917;-78
2022/05/23 04:14:19;;;;;;;;;;;14.10;99.90;;;;;;5109823;28;19941;-75
2022/05/23 04:16:46;;;;;;;;;;;14.10;99.90;;;;;;5150742;27;19918;-76
2022/05/23 04:19:11;;;;;;;;;;;14.10;99.90;;;;;;5117133;28;19916;-75
2022/05/23 04:21:38;;;;;;;;;;;14.10;99.90;;;;;;5116173;28;20310;-75
2022/05/23 04:24:04;;;;;;;;;;;14.10;99.90;;;;;;5115434;28;19915;-76
2022/05/23 04:26:30;;;;;;;;;;;14.10;99.90;;;;;;5117439;28;19912;-75
2022/05/23 04:28:55;;;;;;;;;;;14.10;99.90;;;;;;5141251;27;19912;-75
2022/05/23 04:31:21;;;;;;;;;;;14.10;99.90;;;;;;5095826;28;19912;-76
2022/05/23 04:36:31;;;;;;;;;;;14.20;99.90;;;;;;5117624;28;19966;-75
2022/05/23 04:38:56;;;;;;;;;;;14.30;99.90;;;;;;5146268;27;20241;-75
2022/05/23 04:41:23;;;;;;;;;;;14.30;99.90;;;;;;5146953;27;19934;-76
2022/05/23 04:43:49;;;;;;;;;;;14.40;99.90;;;;;;5117236;28;19912;-75
2022/05/23 04:46:14;;;;;;;;;;;14.50;99.90;;;;;;5117263;28;19912;-75
2022/05/23 04:51:24;;;;;;;;;;;14.60;99.90;;;;;;5099982;28;19961;-75
2022/05/23 04:53:53;;;;;;;;;;;14.70;99.90;;;;;;5096880;28;19908;-75
2022/05/23 04:56:19;;;;;;;;;;;14.80;99.90;;;;;;5096526;28;19912;-75
2022/05/23 04:58:45;;;;;;;;;;;14.80;99.90;;;;;;5096692;28;20013;-75
2022/05/23 05:01:11;;;;;;;;;;;14.90;99.90;;;;;;5101323;28;20330;-76
2022/05/23 05:03:37;;;;;;;;;;;14.90;99.90;;;;;;5095485;28;19916;-75
2022/05/23 05:06:03;;;;;;;;;;;14.80;99.90;;;;;;5095110;28;19908;-75
2022/05/23 05:08:29;;;;;;;;;;;14.80;99.90;;;;;;5098798;28;20311;-76
2022/05/23 05:10:57;;;;;;;;;;;14.80;99.90;;;;;;5114613;28;19912;-75
2022/05/23 05:13:23;;;;;;;;;;;14.70;99.90;;;;;;5115566;28;19912;-75
2022/05/23 05:15:49;;;;;;;;;;;14.80;99.90;;;;;;5096562;28;19912;-76
2022/05/23 05:18:15;;;;;;;;;;;14.80;99.90;;;;;;5108155;28;20271;-75
2022/05/23 05:20:41;;;;;;;;;;;14.80;99.90;;;;;;5112646;28;20326;-74
2022/05/23 05:23:06;;;;;;;;;;;14.90;99.90;;;;;;5116308;28;19907;-74
2022/05/23 05:25:32;;;;;;;;;;;14.90;99.90;;;;;;5114317;28;20000;-75
2022/05/23 05:27:57;;;;;;;;;;;15.00;99.90;;;;;;5113046;28;20253;-75
2022/05/23 05:30:23;;;;;;;;;;;15.10;99.90;;;;;;5114931;28;20006;-75
2022/05/23 05:32:53;;;;;;;;;;;15.10;99.90;;;;;;5100945;28;19912;-74
2022/05/23 05:35:24;;;;;;;;;;;15.20;99.90;;;;;;5107134;28;19923;-75
2022/05/23 05:38:08;;;;;;;;;;;15.20;99.90;;;;;;5113898;28;19912;-75
2022/05/23 05:40:35;;;;;;;;;;;15.30;99.90;;;;;;5107810;28;20214;-75
2022/05/23 05:43:12;;;;;;;;;;;15.40;99.90;;;;;;5109849;28;19912;-75
2022/05/23 05:45:41;;;;;;;;;;;15.40;99.90;;;;;;5113191;28;19918;-75
2022/05/23 05:48:07;;;;;;;;;;;15.50;99.90;;;;;;5115350;28;20361;-75
2022/05/23 05:50:34;;;;;;;;;;;15.60;99.90;;;;;;5101493;28;19912;-76
2022/05/23 05:53:02;;;;;;;;;;;15.60;99.90;;;;;;5112223;28;20293;-76
2022/05/23 05:55:27;;;;;;;;;;;15.70;99.90;;;;;;5111928;28;19947;-76
2022/05/23 05:57:53;;;;;;;;;;;15.80;99.90;;;;;;5114037;28;19955;-76
2022/05/23 06:00:19;;;;;;;;;;;15.80;99.90;;;;;;5114373;28;19926;-77
2022/05/23 06:02:45;;;;;;;;;;;15.90;99.90;;;;;;5111972;28;19912;-75
2022/05/23 06:05:11;;;;;;;;;;;16.00;99.90;;;;;;5146134;27;19912;-76
2022/05/23 06:13:05;;;;;;;;;;;16.40;99.90;;;;;;5114783;28;19980;-79
2022/05/23 06:15:30;;;;;;;;;;;16.50;99.90;;;;;;5097581;28;20305;-76
2022/05/23 06:17:56;;;;;;;;;;;16.50;99.90;;;;;;5114964;28;19907;-76
2022/05/23 06:20:25;;;;;;;;;;;16.60;99.90;;;;;;5114503;28;19919;-76
2022/05/23 06:22:51;;;;;;;;;;;16.60;99.90;;;;;;5114784;28;19916;-77
2022/05/23 06:25:16;;;;;;;;;;;16.80;99.90;;;;;;5113787;28;19969;-76
2022/05/23 06:27:42;;;;;;;;;;;16.90;99.90;;;;;;5101030;28;19911;-76
2022/05/23 06:30:09;;;;;;;;;;;16.90;99.90;;;;;;5102505;28;20307;-77
2022/05/23 06:32:35;;;;;;;;;;;17.10;99.90;;;;;;5108708;28;19908;-75
2022/05/23 06:35:01;;;;;;;;;;;17.20;99.90;;;;;;5104938;28;19961;-77
2022/05/23 06:37:28;;;;;;;;;;;17.20;99.90;;;;;;5116337;28;20329;-76
2022/05/23 06:39:53;;;;;;;;;;;17.30;99.90;;;;;;5097191;28;19920;-77
2022/05/23 06:42:19;;;;;;;;;;;17.40;99.90;;;;;;5100529;28;19920;-76
2022/05/23 06:44:45;;;;;;;;;;;17.40;99.90;;;;;;5115458;28;19943;-77
2022/05/23 06:47:10;;;;;;;;;;;17.50;99.90;;;;;;5145845;27;19911;-77
2022/05/23 06:49:36;;;;;;;;;;;17.60;99.90;;;;;;5116797;28;20214;-75
2022/05/23 06:52:02;;;;;;;;;;;17.60;99.90;;;;;;5116863;28;19964;-77
2022/05/23 06:54:27;;;;;;;;;;;17.60;99.90;;;;;;5099966;28;19912;-76
2022/05/23 06:56:53;;;;;;;;;;;17.60;99.90;;;;;;5118020;28;19908;-76
2022/05/23 06:59:19;;;;;;;;;;;17.70;99.90;;;;;;5112461;28;19916;-76
2022/05/23 07:01:53;;;;;;;;;;;17.70;99.90;;;;;;5116110;28;19959;-77
2022/05/23 07:04:19;;;;;;;;;;;17.80;99.90;;;;;;5107858;28;19919;-76
2022/05/23 07:12:26;;;;;;;;;;;18.10;99.90;;;;;;5113957;27;20015;-76
2022/05/23 07:14:54;;;;;;;;;;;18.20;99.90;;;;;;5114074;27;20298;-77
2022/05/23 07:17:21;;;;;;;;;;;18.30;99.90;;;;;;5118024;28;19915;-77
2022/05/23 07:19:47;;;;;;;;;;;18.50;99.90;;;;;;5111476;28;19939;-76
2022/05/23 07:22:13;;;;;;;;;;;18.60;99.90;;;;;;5109842;28;20315;-76
2022/05/23 07:24:38;;;;;;;;;;;18.70;99.90;;;;;;5149469;27;20015;-76
2022/05/23 07:27:04;;;;;;;;;;;18.90;99.90;;;;;;5097788;28;19931;-76
2022/05/23 07:29:31;;;;;;;;;;;18.90;99.90;;;;;;5110207;28;20314;-77
2022/05/23 07:31:57;;;;;;;;;;;19.00;99.90;;;;;;5111070;28;19916;-78
2022/05/23 07:34:22;;;;;;;;;;;19.20;99.90;;;;;;5097898;28;19908;-76
2022/05/23 07:36:48;;;;;;;;;;;19.40;99.90;;;;;;5117076;28;19957;-76
2022/05/23 07:39:14;;;;;;;;;;;19.60;99.90;;;;;;5117539;28;19939;-76
2022/05/23 07:41:41;;;;;;;;;;;19.70;99.90;;;;;;5104287;28;19951;-75
2022/05/23 07:44:08;;;;;;;;;;;19.80;99.90;;;;;;5112209;28;19931;-75
2022/05/23 07:46:34;;;;;;;;;;;19.80;99.90;;;;;;5097820;28;19922;-77
2022/05/23 07:49:00;;;;;;;;;;;19.80;99.90;;;;;;5114416;28;19972;-77
2022/05/23 07:51:29;;;;;;;;;;;19.80;99.90;;;;;;5117404;28;19916;-76
2022/05/23 08:02:10;;;;;;;;;;;20.10;99.90;;;;;;5116930;28;19952;-77
2022/05/23 08:04:35;;;;;;;;;;;20.00;99.90;;;;;;5101582;28;19909;-77
2022/05/23 08:07:01;;;;;;;;;;;19.90;99.90;;;;;;5103843;28;19923;-76
2022/05/23 08:09:27;;;;;;;;;;;20.00;99.90;;;;;;5099656;27;19912;-75
2022/05/23 08:11:53;;;;;;;;;;;19.90;99.90;;;;;;5106849;28;19915;-76
2022/05/23 08:14:18;;;;;;;;;;;19.80;99.90;;;;;;5101391;28;19916;-76
2022/05/23 08:16:45;;;;;;;;;;;19.70;99.90;;;;;;5103873;28;20355;-78
2022/05/23 08:19:10;;;;;;;;;;;19.60;99.90;;;;;;5103846;27;19951;-76
2022/05/23 08:21:40;;;;;;;;;;;19.50;99.90;;;;;;5102031;28;19955;-76
2022/05/23 08:24:06;;;;;;;;;;;19.60;99.90;;;;;;5104487;28;20377;-76
2022/05/23 08:26:31;;;;;;;;;;;19.50;99.90;;;;;;5114202;28;19925;-76
2022/05/23 08:28:57;;;;;;;;;;;19.60;99.90;;;;;;5123965;27;20011;-76
2022/05/23 08:31:22;;;;;;;;;;;19.70;99.90;;;;;;5112035;27;20010;-76
2022/05/23 08:33:48;;;;;;;;;;;19.80;99.90;;;;;;5112368;28;19965;-76
2022/05/23 08:36:14;;;;;;;;;;;19.90;99.90;;;;;;5096927;28;19915;-76
2022/05/23 08:38:39;;;;;;;;;;;20.10;99.90;;;;;;5108935;28;20310;-76
2022/05/23 08:41:14;;;;;;;;;;;20.30;99.90;;;;;;5102320;28;19928;-76
2022/05/23 08:44:02;;;;;;;;;;;20.50;99.90;;;;;;5105650;28;19912;-76
2022/05/23 08:46:45;;;;;;;;;;;20.80;99.90;;;;;;5096618;28;19977;-76
2022/05/23 08:49:13;;;;;;;;;;;21.10;99.90;;;;;;5110390;28;19923;-75
2022/05/23 08:51:54;;;;;;;;;;;21.40;99.90;;;;;;5096703;28;19912;-76
2022/05/23 08:54:35;;;;;;;;;;;21.50;99.90;;;;;;5110121;28;19915;-76
2022/05/23 08:57:03;;;;;;;;;;;21.60;99.90;;;;;;5097778;28;19930;-77
2022/05/23 08:59:48;;;;;;;;;;;21.80;99.90;;;;;;5110190;28;19927;-76
2022/05/23 09:02:18;;;;;;;;;;;22.30;99.90;;;;;;5096205;28;19912;-76
2022/05/23 09:05:04;;;;;;;;;;;22.60;99.90;;;;;;5096199;28;19998;-76
2022/05/23 09:07:42;;;;;;;;;;;23.00;99.90;;;;;;5095626;28;20245;-75
2022/05/23 09:10:31;;;;;;;;;;;23.90;99.90;;;;;;5096378;28;19914;-77
2022/05/23 09:12:56;;;;;;;;;;;24.50;99.90;;;;;;5090473;28;19919;-77
2022/05/23 09:15:23;;;;;;;;;;;25.20;99.90;;;;;;5096171;28;20218;-76
2022/05/23 09:17:54;;;;;;;;;;;24.90;99.90;;;;;;5096234;28;20378;-76
2022/05/23 09:20:38;;;;;;;;;;;25.30;99.90;;;;;;5094895;28;19912;-77
2022/05/23 09:23:06;;;;;;;;;;;25.90;99.90;;;;;;5100019;28;19908;-76
2022/05/23 09:25:32;;;;;;;;;;;26.20;99.90;;;;;;5115274;28;19908;-77
2022/05/23 09:28:04;;;;;;;;;;;26.40;99.90;;;;;;5116613;28;19907;-75
2022/05/23 09:30:30;;;;;;;;;;;26.60;99.00;;;;;;5095712;28;19974;-74
2022/05/23 09:32:55;;;;;;;;;;;26.40;98.50;;;;;;5095881;28;19912;-77
2022/05/23 09:35:22;;;;;;;;;;;26.10;99.30;;;;;;5092492;28;20307;-75
2022/05/23 09:38:04;;;;;;;;;;;25.90;99.30;;;;;;5091996;28;20667;-75
2022/05/23 09:40:31;;;;;;;;;;;26.20;99.60;;;;;;5091900;28;19969;-75
2022/05/23 09:49:24;;;;;;;;;;;25.10;98.40;;;;;;5092282;28;19918;-78
2022/05/23 09:51:56;;;;;;;;;;;24.60;98.90;;;;;;5029418;28;19940;-74
2022/05/23 09:54:40;;;;;;;;;;;24.10;99.90;;;;;;5029575;28;19996;-74
2022/05/23 09:57:15;;;;;;;;;;;23.80;99.90;;;;;;5029606;28;19952;-75
2022/05/23 09:59:40;;;;;;;;;;;23.40;99.90;;;;;;5042596;28;19963;-75
2022/05/23 10:02:15;;;;;;;;;;;23.20;99.90;;;;;;5032492;28;19952;-75
2022/05/23 10:04:44;;;;;;;;;;;23.30;99.90;;;;;;5048502;28;19927;-75
2022/05/23 10:07:22;;;;;;;;;;;23.30;99.90;;;;;;5047662;28;19948;-75
2022/05/23 10:09:56;;;;;;;;;;;23.40;99.90;;;;;;5030735;28;20450;-75
2022/05/23 10:12:22;;;;;;;;;;;23.50;99.90;;;;;;5067650;28;19940;-75
2022/05/23 10:14:49;;;;;;;;;;;23.50;99.90;;;;;;5051287;28;20052;-74
2022/05/23 10:17:26;;;;;;;;;;;23.50;99.90;;;;;;5050839;28;19925;-75
2022/05/23 10:19:53;;;;;;;;;;;23.50;99.90;;;;;;5034454;28;19916;-76
2022/05/23 10:22:24;;;;;;;;;;;23.50;99.90;;;;;;5052882;28;20305;-74
2022/05/23 10:24:56;;;;;;;;;;;23.40;99.90;;;;;;5056898;28;19959;-74
2022/05/23 10:27:32;;;;;;;;;;;23.30;99.90;;;;;;5116136;28;19911;-74
2022/05/23 10:29:59;;;;;;;;;;;23.20;99.90;;;;;;5114744;28;19961;-76
2022/05/23 10:32:33;;;;;;;;;;;23.30;99.90;;;;;;5112522;27;20364;-74
2022/05/23 10:35:08;;;;;;;;;;;23.10;99.90;;;;;;5113167;28;19985;-74
2022/05/23 10:37:39;;;;;;;;;;;23.00;99.90;;;;;;5109720;28;19942;-74
2022/05/23 10:42:49;;;;;;;;;;;23.00;99.90;;;;;;5106166;28;19968;-74
2022/05/23 10:45:27;;;;;;;;;;;23.10;99.90;;;;;;5109538;27;19915;-74
2022/05/23 10:48:13;;;;;;;;;;;23.20;99.90;;;;;;5108660;28;20038;-76
2022/05/23 10:50:54;;;;;;;;;;;23.60;99.90;;;;;;5115150;28;20496;-74
2022/05/23 10:53:26;;;;;;;;;;;24.30;99.90;;;;;;5114406;28;20006;-75
2022/05/23 10:55:59;;;;;;;;;;;24.70;99.90;;;;;;5114537;28;19919;-74
2022/05/23 10:58:31;;;;;;;;;;;25.00;99.90;;;;;;5112183;28;20397;-74
2022/05/23 11:00:57;;;;;;;;;;;25.10;99.90;;;;;;5099849;28;20057;-76
2022/05/23 11:03:31;;;;;;;;;;;25.00;99.90;;;;;;5115468;28;20349;-75
2022/05/23 11:06:10;;;;;;;;;;;24.80;99.90;;;;;;5110911;28;19924;-74
2022/05/23 11:08:54;;;;;;;;;;;24.60;99.90;;;;;;5105963;28;20051;-74
2022/05/23 11:11:22;;;;;;;;;;;24.40;99.90;;;;;;5100930;28;19965;-74
2022/05/23 11:13:51;;;;;;;;;;;24.20;99.90;;;;;;5110503;28;19946;-74
2022/05/23 11:16:22;;;;;;;;;;;23.90;99.90;;;;;;5113302;28;19958;-77
2022/05/23 11:19:05;;;;;;;;;;;23.20;99.90;;;;;;5113796;28;19908;-77
2022/05/23 11:21:42;;;;;;;;;;;23.20;99.90;;;;;;5113493;28;19916;-77
2022/05/23 11:24:14;;;;;;;;;;;22.90;99.90;;;;;;5101068;28;19935;-76
2022/05/23 11:26:43;;;;;;;;;;;22.70;99.90;;;;;;5107063;28;19916;-76
2022/05/23 11:34:44;;;;;;;;;;;22.70;99.90;;;;;;5106025;28;20210;-77
2022/05/23 11:37:42;;;;;;;;;;;22.90;99.90;;;;;;5113311;28;19969;-76
2022/05/23 11:40:02;;;;;;;;;;;23.60;99.90;;;;;;5097990;28;20202;-79
2022/05/23 11:42:27;;;;;;;;;;;23.80;99.90;;;;;;5102715;28;20268;-77
2022/05/23 11:47:59;;;;;;;;;;;24.00;99.90;;;;;;5113016;28;19956;-77
2022/05/23 11:50:32;;;;;;;;;;;24.40;99.90;;;;;;5108503;28;20294;-79
2022/05/23 11:53:11;;;;;;;;;;;24.40;99.90;;;;;;5109627;28;20187;-78
2022/05/23 11:55:55;;;;;;;;;;;24.50;99.90;;;;;;5109404;28;19915;-77
2022/05/23 11:58:24;;;;;;;;;;;24.90;99.90;;;;;;5112715;28;20002;-78
2022/05/23 12:01:16;;;;;;;;;;;25.00;99.90;;;;;;5100248;28;19920;-76
2022/05/23 12:03:47;;;;;;;;;;;24.80;99.90;;;;;;5091879;28;19919;-79
2022/05/23 12:06:33;;;;;;;;;;;25.00;99.90;;;;;;5100437;28;20023;-78
2022/05/23 12:09:11;;;;;;;;;;;25.10;99.90;;;;;;5095888;28;20450;-77
2022/05/23 12:11:38;;;;;;;;;;;24.80;99.90;;;;;;5109372;28;19965;-80
2022/05/23 12:14:21;;;;;;;;;;;24.10;99.90;;;;;;5112669;28;19931;-78
2022/05/23 12:16:57;;;;;;;;;;;23.90;99.90;;;;;;5111506;28;19915;-79
2022/05/23 12:19:38;;;;;;;;;;;23.60;99.90;;;;;;5106538;27;19965;-78
2022/05/23 12:22:23;;;;;;;;;;;23.50;99.90;;;;;;5094335;28;20364;-78
2022/05/23 12:24:56;;;;;;;;;;;23.50;99.90;;;;;;5111793;28;20299;-79
2022/05/23 12:27:32;;;;;;;;;;;23.50;99.90;;;;;;5109032;28;19920;-78
2022/05/23 12:30:16;;;;;;;;;;;23.10;99.90;;;;;;5109110;28;19916;-77
2022/05/23 12:32:42;;;;;;;;;;;23.00;99.90;;;;;;5107663;28;19912;-80
2022/05/23 12:35:08;;;;;;;;;;;22.70;99.90;;;;;;5092983;28;20008;-78
2022/05/23 12:37:38;;;;;;;;;;;22.80;99.90;;;;;;5093679;28;20458;-78
2022/05/23 12:40:06;;;;;;;;;;;22.90;99.90;;;;;;5107271;28;19920;-79
2022/05/23 12:42:36;;;;;;;;;;;22.90;99.90;;;;;;5109088;28;20627;-80
2022/05/23 12:45:11;;;;;;;;;;;23.00;99.90;;;;;;5110307;28;19920;-79
2022/05/23 12:47:37;;;;;;;;;;;23.00;99.90;;;;;;5104963;27;19922;-76
2022/05/23 12:50:24;;;;;;;;;;;22.50;99.90;;;;;;5109939;28;19916;-80
2022/05/23 12:53:05;;;;;;;;;;;22.20;99.90;;;;;;5110019;28;20206;-79
2022/05/23 12:55:41;;;;;;;;;;;21.70;99.90;;;;;;5106476;28;19930;-79
2022/05/23 12:58:10;;;;;;;;;;;21.50;99.90;;;;;;5108048;28;19919;-78
2022/05/23 13:00:55;;;;;;;;;;;21.30;99.90;;;;;;5102167;27;20374;-80
2022/05/23 13:03:39;;;;;;;;;;;21.10;99.90;;;;;;5107531;27;19931;-78
2022/05/23 13:06:18;;;;;;;;;;;20.90;99.90;;;;;;5104660;27;19986;-78
2022/05/23 13:09:07;;;;;;;;;;;20.60;99.90;;;;;;5106545;28;19912;-78
2022/05/23 13:11:35;;;;;;;;;;;20.20;99.90;;;;;;5094122;28;19916;-79
2022/05/23 13:14:01;;;;;;;;;;;19.80;99.90;;;;;;5100117;28;19916;-81
2022/05/23 13:16:27;;;;;;;;;;;19.70;99.90;;;;;;5092119;28;19916;-80
2022/05/23 13:27:08;;;;;;;;;;;19.40;99.90;;;;;;5101173;28;20344;-82
2022/05/23 13:29:34;;;;;;;;;;;19.30;99.90;;;;;;5098202;28;19919;-80
2022/05/23 13:32:16;;;;;;;;;;;19.30;99.90;;;;;;5101237;28;19924;-81
2022/05/23 13:34:43;;;;;;;;;;;19.20;99.90;;;;;;5099520;28;20222;-81
2022/05/23 13:37:09;;;;;;;;;;;19.20;99.90;;;;;;5101894;28;19934;-82
2022/05/23 13:39:45;;;;;;;;;;;19.10;99.90;;;;;;5110905;28;19919;-80
2022/05/23 13:42:18;;;;;;;;;;;19.10;99.90;;;;;;5109242;28;20202;-81
2022/05/23 13:44:43;;;;;;;;;;;19.00;99.90;;;;;;5110271;28;19992;-82
2022/05/23 13:47:11;;;;;;;;;;;19.10;99.90;;;;;;5110536;28;19924;-78
2022/05/23 13:49:42;;;;;;;;;;;19.00;99.90;;;;;;5110720;28;19919;-78
2022/05/23 13:52:10;;;;;;;;;;;18.90;99.90;;;;;;5109824;28;19967;-76
2022/05/23 13:54:36;;;;;;;;;;;18.90;99.90;;;;;;5103260;28;19966;-78
2022/05/23 13:57:13;;;;;;;;;;;18.80;99.90;;;;;;5109417;28;19930;-77
2022/05/23 13:59:51;;;;;;;;;;;18.70;99.90;;;;;;5106332;28;20298;-77
2022/05/23 14:02:19;;;;;;;;;;;18.70;99.90;;;;;;5110572;28;20225;-77
2022/05/23 14:04:45;;;;;;;;;;;18.60;99.90;;;;;;5108127;28;20298;-78
2022/05/23 14:07:13;;;;;;;;;;;18.60;99.90;;;;;;5110922;28;19919;-76
2022/05/23 14:09:49;;;;;;;;;;;18.50;99.90;;;;;;5110792;28;19920;-78
2022/05/23 14:12:21;;;;;;;;;;;18.50;99.90;;;;;;5109406;28;19915;-77
2022/05/23 14:14:58;;;;;;;;;;;18.50;99.90;;;;;;5109307;28;20007;-78
2022/05/23 14:17:30;;;;;;;;;;;18.50;99.90;;;;;;5103615;28;19916;-77
2022/05/23 14:20:10;;;;;;;;;;;18.50;99.90;;;;;;5101496;28;19927;-78
2022/05/23 14:22:35;;;;;;;;;;;18.50;99.90;;;;;;5109886;28;19926;-79
2022/05/23 14:25:13;;;;;;;;;;;18.50;99.90;;;;;;5109190;28;20237;-78
2022/05/23 14:27:50;;;;;;;;;;;18.50;99.90;;;;;;5109988;28;19916;-79
2022/05/23 14:30:19;;;;;;;;;;;18.50;99.90;;;;;;5109450;28;19947;-79
2022/05/23 14:32:57;;;;;;;;;;;18.50;99.90;;;;;;5109147;28;19915;-78
2022/05/23 14:35:34;;;;;;;;;;;18.30;99.90;;;;;;5109061;28;19920;-77
2022/05/23 14:38:01;;;;;;;;;;;18.30;99.90;;;;;;5109665;28;19941;-76
2022/05/23 14:40:40;;;;;;;;;;;18.10;99.90;;;;;;5109627;28;20337;-76
2022/05/23 14:43:08;;;;;;;;;;;18.10;99.90;;;;;;5108098;28;20023;-77
2022/05/23 14:45:34;;;;;;;;;;;18.10;99.90;;;;;;5103351;28;19984;-78
2022/05/23 14:48:06;;;;;;;;;;;17.90;99.90;;;;;;5109136;28;20018;-77
2022/05/23 14:50:31;;;;;;;;;;;17.80;99.90;;;;;;5109498;28;19928;-75
2022/05/23 14:55:49;;;;;;;;;;;17.70;99.90;;;;;;5109012;28;20226;-75
2022/05/23 15:01:03;;;;;;;;;;;17.50;99.90;;;;;;5113651;28;20470;-76
2022/05/23 15:03:42;;;;;;;;;;;17.50;99.90;;;;;;5104552;28;19969;-77
2022/05/23 15:06:08;;;;;;;;;;;17.50;99.90;;;;;;5110464;27;19923;-75
2022/05/23 15:08:34;;;;;;;;;;;17.50;99.90;;;;;;5113042;28;19916;-78
2022/05/23 15:11:00;;;;;;;;;;;17.50;99.90;;;;;;5108308;27;19984;-75
2022/05/23 15:13:28;;;;;;;;;;;17.70;99.90;;;;;;5112004;28;20299;-76
2022/05/23 15:16:02;;;;;;;;;;;17.80;99.90;;;;;;5112915;28;19915;-77
2022/05/23 15:18:28;;;;;;;;;;;17.90;99.90;;;;;;5111122;28;19923;-80
2022/05/23 15:20:54;;;;;;;;;;;17.80;99.90;;;;;;5110984;27;19916;-82
2022/05/23 15:23:20;;;;;;;;;;;17.80;99.90;;;;;;5103184;28;20016;-78
2022/05/23 15:25:46;;;;;;;;;;;17.70;99.90;;;;;;5112270;27;19965;-81
2022/05/23 15:28:11;;;;;;;;;;;17.60;99.90;;;;;;5105865;28;19916;-81
2022/05/23 15:30:37;;;;;;;;;;;17.60;99.90;;;;;;5113823;28;19916;-81
2022/05/23 15:33:02;;;;;;;;;;;17.50;99.90;;;;;;5113769;28;20237;-77
2022/05/23 15:35:28;;;;;;;;;;;17.30;99.90;;;;;;5113224;28;19922;-77
2022/05/23 15:37:54;;;;;;;;;;;17.20;99.90;;;;;;5112762;28;19927;-76
2022/05/23 15:40:20;;;;;;;;;;;17.20;99.90;;;;;;5111759;28;19928;-75
2022/05/23 15:42:47;;;;;;;;;;;17.10;99.90;;;;;;5113297;28;19935;-77